createdAt,value
2018-08-24T00:00:45.428Z,99.90
2018-08-24T00:03:13.802Z,99.90
2018-08-24T00:05:42.773Z,99.90
2018-08-24T00:08:13.120Z,99.90
2018-08-24T00:10:41.587Z,99.90
2018-08-24T00:13:10.236Z,99.90
2018-08-24T00:15:39.013Z,99.90
2018-08-24T00:18:07.636Z,99.90
2018-08-24T00:20:39.176Z,99.90
2018-08-24T00:23:07.843Z,99.90
2018-08-24T00:25:37.129Z,99.90
2018-08-24T00:28:06.383Z,99.90
2018-08-24T00:30:35.222Z,99.90
2018-08-24T00:33:03.747Z,99.90
2018-08-24T00:35:32.589Z,99.90
2018-08-24T00:38:03.630Z,99.90
2018-08-24T00:40:32.185Z,99.90
2018-08-24T00:43:00.853Z,99.90
2018-08-24T00:45:29.803Z,99.90
2018-08-24T00:47:58.183Z,99.90
2018-08-24T00:50:29.733Z,99.90
2018-08-24T00:52:58.502Z,99.90
2018-08-24T00:55:27.269Z,99.90
2018-08-24T00:57:57.672Z,99.90
2018-08-24T01:00:32.406Z,99.90
2018-08-24T01:03:01.625Z,99.90
2018-08-24T01:05:30.941Z,99.90
2018-08-24T01:08:05.728Z,99.90
2018-08-24T01:10:37.637Z,99.90
2018-08-24T01:13:11.812Z,99.90
2018-08-24T01:15:46.641Z,99.90
2018-08-24T01:18:28.985Z,99.90
2018-08-24T01:20:57.665Z,99.90
2018-08-24T01:23:28.674Z,99.90
2018-08-24T01:25:57.139Z,99.90
2018-08-24T01:28:27.052Z,99.90
2018-08-24T01:31:01.226Z,99.90
2018-08-24T01:33:31.240Z,99.90
2018-08-24T01:36:00.168Z,99.90
2018-08-24T01:38:28.867Z,99.90
2018-08-24T01:40:57.520Z,99.90
2018-08-24T01:43:26.892Z,99.90
2018-08-24T01:46:01.050Z,99.90
2018-08-24T01:55:30.327Z,99.90
2018-08-24T01:57:58.976Z,99.90
2018-08-24T02:00:28.640Z,99.90
2018-08-24T02:02:57.283Z,99.90
2018-08-24T02:05:26.095Z,99.90
2018-08-24T02:07:56.785Z,99.90
2018-08-24T02:10:28.614Z,99.90
2018-08-24T02:13:03.395Z,99.90
2018-08-24T02:15:32.054Z,99.90
2018-08-24T02:19:09.194Z,99.90
2018-08-24T02:21:43.655Z,99.90
2018-08-24T02:24:13.322Z,99.90
2018-08-24T02:26:43.544Z,99.90
2018-08-24T02:29:12.293Z,99.90
2018-08-24T02:31:46.404Z,99.90
2018-08-24T02:34:16.086Z,99.90
2018-08-24T02:36:45.846Z,99.90
2018-08-24T02:39:17.120Z,99.90
2018-08-24T02:41:45.708Z,99.90
2018-08-24T02:44:14.921Z,99.90
2018-08-24T02:46:44.937Z,99.90
2018-08-24T02:49:14.012Z,99.90
2018-08-24T02:51:42.850Z,99.90
2018-08-24T02:54:11.359Z,99.90
2018-08-24T02:56:40.094Z,99.90
2018-08-24T02:59:11.668Z,99.90
2018-08-24T03:01:40.369Z,99.90
2018-08-24T03:04:09.078Z,99.90
2018-08-24T03:06:37.813Z,99.90
2018-08-24T03:09:08.782Z,99.90
2018-08-24T03:11:37.849Z,99.90
2018-08-24T03:14:06.893Z,99.90
2018-08-24T03:16:37.394Z,99.90
2018-08-24T03:19:06.690Z,99.90
2018-08-24T03:21:35.433Z,99.90
2018-08-24T03:24:07.039Z,99.90
2018-08-24T03:26:35.790Z,99.90
2018-08-24T03:29:04.601Z,99.90
2018-08-24T03:31:34.256Z,99.90
2018-08-24T03:34:02.921Z,99.90
2018-08-24T03:36:31.756Z,99.90
2018-08-24T03:39:00.516Z,99.90
2018-08-24T03:41:29.124Z,99.90
2018-08-24T03:43:57.784Z,99.90
2018-08-24T03:46:26.448Z,99.90
2018-08-24T03:48:54.902Z,99.90
2018-08-24T03:51:23.550Z,99.90
2018-08-24T03:53:52.297Z,99.90
2018-08-24T03:56:20.953Z,99.90
2018-08-24T03:58:50.089Z,99.90
2018-08-24T04:01:21.708Z,99.90
2018-08-24T04:03:51.314Z,99.90
2018-08-24T04:06:21.125Z,99.90
2018-08-24T04:08:49.644Z,99.90
2018-08-24T04:11:19.777Z,99.90
2018-08-24T04:13:49.104Z,99.90
2018-08-24T04:16:17.720Z,99.90
2018-08-24T04:18:46.244Z,99.90
2018-08-24T04:21:14.789Z,99.90
2018-08-24T04:23:43.616Z,99.90
2018-08-24T04:26:12.299Z,99.90
2018-08-24T04:28:40.990Z,99.90
2018-08-24T04:31:10.315Z,99.90
2018-08-24T04:33:40.277Z,99.90
2018-08-24T04:36:10.062Z,99.90
2018-08-24T04:38:38.628Z,99.90
2018-08-24T04:41:08.410Z,99.90
2018-08-24T04:43:37.738Z,99.90
2018-08-24T04:46:06.871Z,99.90
2018-08-24T04:48:36.753Z,99.90
2018-08-24T04:51:05.460Z,99.90
2018-08-24T04:53:34.203Z,99.90
2018-08-24T04:56:02.977Z,99.90
2018-08-24T04:58:31.938Z,99.90
2018-08-24T05:01:01.258Z,99.90
2018-08-24T05:03:29.892Z,99.90
2018-08-24T05:05:59.255Z,99.90
2018-08-24T05:08:28.489Z,99.90
2018-08-24T05:10:57.071Z,99.90
2018-08-24T05:13:25.913Z,99.90
2018-08-24T05:15:54.717Z,99.90
2018-08-24T05:19:53.420Z,99.90
2018-08-24T05:22:21.760Z,99.90
2018-08-24T05:24:50.667Z,99.90
2018-08-24T05:27:19.646Z,99.90
2018-08-24T05:29:49.475Z,99.90
2018-08-24T05:32:18.637Z,99.90
2018-08-24T05:34:47.167Z,99.90
2018-08-24T05:37:15.792Z,99.90
2018-08-24T05:39:44.468Z,99.90
2018-08-24T05:42:13.275Z,99.90
2018-08-24T05:44:42.248Z,99.90
2018-08-24T05:47:10.629Z,99.90
2018-08-24T05:49:39.737Z,99.90
2018-08-24T05:52:09.152Z,99.90
2018-08-24T05:54:37.603Z,99.90
2018-08-24T05:57:11.724Z,99.90
2018-08-24T05:59:40.865Z,99.90
2018-08-24T06:02:09.484Z,99.90
2018-08-24T06:04:43.609Z,99.90
2018-08-24T06:07:12.656Z,99.90
2018-08-24T06:09:41.399Z,99.90
2018-08-24T06:12:10.041Z,99.90
2018-08-24T06:14:39.120Z,99.90
2018-08-24T06:17:13.804Z,99.90
2018-08-24T06:19:43.262Z,99.90
2018-08-24T06:22:12.749Z,99.90
2018-08-24T06:24:42.402Z,99.90
2018-08-24T06:27:11.187Z,99.90
2018-08-24T06:29:39.896Z,99.90
2018-08-24T06:32:08.668Z,99.90
2018-08-24T06:34:37.724Z,99.90
2018-08-24T06:37:06.595Z,99.90
2018-08-24T06:39:36.186Z,99.90
2018-08-24T06:42:05.178Z,99.90
2018-08-24T06:44:34.734Z,99.90
2018-08-24T06:47:03.400Z,99.90
2018-08-24T06:49:32.697Z,99.90
2018-08-24T06:52:02.613Z,99.90
2018-08-24T06:54:31.387Z,99.90
2018-08-24T06:57:00.088Z,99.90
2018-08-24T06:59:29.890Z,99.90
2018-08-24T07:01:59.237Z,99.90
2018-08-24T07:04:28.521Z,99.90
2018-08-24T07:06:57.152Z,99.90
2018-08-24T07:09:29.757Z,99.90
2018-08-24T07:11:59.058Z,99.90
2018-08-24T07:14:28.581Z,99.90
2018-08-24T07:16:59.946Z,99.90
2018-08-24T07:19:29.763Z,99.90
2018-08-24T07:21:58.637Z,99.90
2018-08-24T07:24:27.146Z,99.90
2018-08-24T07:26:56.412Z,99.90
2018-08-24T07:29:24.845Z,99.90
2018-08-24T07:31:53.414Z,99.90
2018-08-24T07:34:21.966Z,99.60
2018-08-24T07:36:50.885Z,99.40
2018-08-24T07:39:19.378Z,99.10
2018-08-24T07:41:48.117Z,99.20
2018-08-24T07:44:17.596Z,98.40
2018-08-24T07:46:46.278Z,97.60
2018-08-24T07:49:14.954Z,97.80
2018-08-24T07:51:43.567Z,97.10
2018-08-24T07:54:12.473Z,96.80
2018-08-24T07:56:41.002Z,97.00
2018-08-24T07:59:09.796Z,96.80
2018-08-24T08:01:39.021Z,96.80
2018-08-24T08:04:08.105Z,96.70
2018-08-24T08:06:36.904Z,96.50
2018-08-24T08:09:07.255Z,97.60
2018-08-24T08:11:40.008Z,97.40
2018-08-24T08:14:11.391Z,97.70
2018-08-24T08:16:42.838Z,98.40
2018-08-24T08:19:11.652Z,98.40
2018-08-24T08:21:43.195Z,99.00
2018-08-24T08:24:14.828Z,99.40
2018-08-24T08:26:43.470Z,99.90
2018-08-24T08:29:20.381Z,99.90
2018-08-24T08:31:49.765Z,99.90
2018-08-24T08:34:18.197Z,99.90
2018-08-24T08:36:48.027Z,99.90
2018-08-24T08:39:16.531Z,99.90
2018-08-24T08:41:45.793Z,99.90
2018-08-24T08:44:15.567Z,99.90
2018-08-24T08:46:44.768Z,99.90
2018-08-24T08:49:16.851Z,99.90
2018-08-24T08:51:51.471Z,99.80
2018-08-24T08:54:26.285Z,99.50
2018-08-24T08:56:55.406Z,99.40
2018-08-24T08:59:23.983Z,99.50
2018-08-24T09:01:56.317Z,99.10
2018-08-24T09:04:27.509Z,98.90
2018-08-24T09:06:57.393Z,97.90
2018-08-24T09:09:25.844Z,98.30
2018-08-24T09:11:57.598Z,98.40
2018-08-24T09:14:26.194Z,98.20
2018-08-24T09:17:13.010Z,98.20
2018-08-24T09:19:46.553Z,98.80
2018-08-24T09:22:22.195Z,98.60
2018-08-24T09:24:57.144Z,99.20
2018-08-24T09:27:34.740Z,99.10
2018-08-24T09:30:04.575Z,99.30
2018-08-24T09:32:33.912Z,99.40
2018-08-24T09:35:02.567Z,99.60
2018-08-24T09:37:37.535Z,99.50
2018-08-24T09:40:06.755Z,99.70
2018-08-24T09:42:35.689Z,99.90
2018-08-24T09:45:04.556Z,99.90
2018-08-24T09:47:38.443Z,99.20
2018-08-24T09:50:13.191Z,99.20
2018-08-24T09:52:46.388Z,99.00
2018-08-24T09:55:15.241Z,99.30
2018-08-24T09:57:43.837Z,98.30
2018-08-24T10:00:12.484Z,97.30
2018-08-24T10:02:43.520Z,97.80
2018-08-24T10:05:17.478Z,97.00
2018-08-24T10:07:51.898Z,97.30
2018-08-24T10:10:21.057Z,97.40
2018-08-24T10:12:49.661Z,96.00
2018-08-24T10:15:18.375Z,95.20
2018-08-24T10:17:47.967Z,95.10
2018-08-24T10:20:16.548Z,94.60
2018-08-24T10:22:44.976Z,94.90
2018-08-24T10:25:14.882Z,94.60
2018-08-24T10:27:43.678Z,94.40
2018-08-24T10:30:12.838Z,94.10
2018-08-24T10:32:42.086Z,92.90
2018-08-24T10:35:11.645Z,93.50
2018-08-24T10:37:40.395Z,92.80
2018-08-24T10:40:09.950Z,92.60
2018-08-24T10:42:39.178Z,92.70
2018-08-24T10:45:07.473Z,92.10
2018-08-24T10:47:36.272Z,90.90
2018-08-24T10:50:05.169Z,90.90
2018-08-24T10:52:33.784Z,91.70
2018-08-24T10:55:02.469Z,91.10
2018-08-24T10:57:31.055Z,91.80
2018-08-24T10:59:59.819Z,91.70
2018-08-24T11:02:28.603Z,91.20
2018-08-24T11:04:57.756Z,90.90
2018-08-24T11:07:26.952Z,90.90
2018-08-24T11:09:55.630Z,91.20
2018-08-24T11:12:28.334Z,91.50
2018-08-24T11:14:57.047Z,90.90
2018-08-24T11:17:26.410Z,90.30
2018-08-24T11:19:55.022Z,86.50
2018-08-24T11:22:23.717Z,86.20
2018-08-24T11:24:52.611Z,87.30
2018-08-24T11:27:21.184Z,88.20
2018-08-24T11:29:50.279Z,87.00
2018-08-24T11:32:19.310Z,85.00
2018-08-24T11:34:48.099Z,85.80
2018-08-24T11:37:16.893Z,88.60
2018-08-24T11:39:45.380Z,86.10
2018-08-24T11:42:17.552Z,87.20
2018-08-24T11:44:46.704Z,87.60
2018-08-24T11:47:19.068Z,86.60
2018-08-24T11:49:49.946Z,86.60
2018-08-24T11:52:20.137Z,87.20
2018-08-24T11:54:48.906Z,88.30
2018-08-24T11:57:17.714Z,88.10
2018-08-24T11:59:46.312Z,85.50
2018-08-24T12:02:16.143Z,85.60
2018-08-24T12:04:44.692Z,84.50
2018-08-24T12:07:13.453Z,82.20
2018-08-24T12:09:42.098Z,83.10
2018-08-24T12:12:10.909Z,81.80
2018-08-24T12:14:39.494Z,80.00
2018-08-24T12:17:09.794Z,80.90
2018-08-24T12:19:39.177Z,81.90
2018-08-24T12:22:07.678Z,82.20
2018-08-24T12:24:36.832Z,81.10
2018-08-24T12:27:05.157Z,80.60
2018-08-24T12:29:33.865Z,81.90
2018-08-24T12:32:02.709Z,78.90
2018-08-24T12:34:31.787Z,79.90
2018-08-24T12:37:00.846Z,78.70
2018-08-24T12:39:29.397Z,75.70
2018-08-24T12:41:58.511Z,79.70
2018-08-24T12:44:26.912Z,80.30
2018-08-24T12:46:55.762Z,80.50
2018-08-24T12:49:24.552Z,78.50
2018-08-24T12:51:53.379Z,80.70
2018-08-24T12:54:22.076Z,80.50
2018-08-24T12:56:50.732Z,80.10
2018-08-24T12:59:19.379Z,79.70
2018-08-24T13:01:48.130Z,80.00
2018-08-24T13:04:16.824Z,81.20
2018-08-24T13:06:45.709Z,81.10
2018-08-24T13:09:14.143Z,80.50
2018-08-24T13:11:42.833Z,78.70
2018-08-24T13:14:11.595Z,79.70
2018-08-24T13:16:40.141Z,78.70
2018-08-24T13:19:09.129Z,81.40
2018-08-24T13:21:37.697Z,79.90
2018-08-24T13:24:06.612Z,80.00
2018-08-24T13:26:35.190Z,78.50
2018-08-24T13:29:04.541Z,78.00
2018-08-24T13:31:33.003Z,78.20
2018-08-24T13:34:01.914Z,78.00
2018-08-24T13:43:28.652Z,79.00
2018-08-24T13:45:57.184Z,78.80
2018-08-24T13:48:25.943Z,77.00
2018-08-24T13:50:54.881Z,76.30
2018-08-24T13:53:23.621Z,76.80
2018-08-24T13:55:52.846Z,76.30
2018-08-24T13:58:21.089Z,77.20
2018-08-24T14:00:50.497Z,74.30
2018-08-24T14:03:19.941Z,76.10
2018-08-24T14:05:48.680Z,75.80
2018-08-24T14:08:18.578Z,76.90
2018-08-24T14:10:47.225Z,73.90
2018-08-24T14:13:16.034Z,75.30
2018-08-24T14:15:44.490Z,73.30
2018-08-24T14:18:18.517Z,72.90
2018-08-24T14:20:47.783Z,73.60
2018-08-24T14:23:18.011Z,77.00
2018-08-24T14:25:46.665Z,75.60
2018-08-24T14:28:15.436Z,76.40
2018-08-24T14:30:44.026Z,76.10
2018-08-24T14:33:12.706Z,76.50
2018-08-24T14:35:41.454Z,77.00
2018-08-24T14:38:10.150Z,78.40
2018-08-24T14:40:38.924Z,76.60
2018-08-24T14:43:07.705Z,76.80
2018-08-24T14:45:36.480Z,75.80
2018-08-24T14:48:05.242Z,77.10
2018-08-24T14:50:33.957Z,78.90
2018-08-24T14:53:02.537Z,78.00
2018-08-24T14:55:31.252Z,76.70
2018-08-24T14:58:00.412Z,74.80
2018-08-24T15:00:29.577Z,74.80
2018-08-24T15:02:59.459Z,72.70
2018-08-24T15:05:28.611Z,72.50
2018-08-24T15:07:57.200Z,71.20
2018-08-24T15:10:26.116Z,72.40
2018-08-24T15:12:55.491Z,73.20
2018-08-24T15:15:24.038Z,70.80
2018-08-24T15:17:52.786Z,70.80
2018-08-24T15:20:21.396Z,72.00
2018-08-24T15:22:50.229Z,73.30
2018-08-24T15:25:18.697Z,74.60
2018-08-24T15:27:47.961Z,73.80
2018-08-24T15:30:16.423Z,74.80
2018-08-24T15:32:45.019Z,75.60
2018-08-24T15:35:13.682Z,76.80
2018-08-24T15:37:42.360Z,77.80
2018-08-24T15:40:12.329Z,79.20
2018-08-24T15:42:40.707Z,80.40
2018-08-24T15:45:09.448Z,79.30
2018-08-24T15:47:38.221Z,78.90
2018-08-24T15:50:06.956Z,78.90
2018-08-24T15:52:35.601Z,78.80
2018-08-24T15:55:04.275Z,78.30
2018-08-24T15:57:32.853Z,79.60
2018-08-24T16:00:01.737Z,79.40
2018-08-24T16:02:30.322Z,79.80
2018-08-24T16:04:58.932Z,80.90
2018-08-24T16:07:27.625Z,81.50
2018-08-24T16:09:56.493Z,82.60
2018-08-24T16:12:25.370Z,81.90
2018-08-24T16:14:54.026Z,82.00
2018-08-24T16:17:22.889Z,81.50
2018-08-24T16:19:51.750Z,78.80
2018-08-24T16:22:20.475Z,78.00
2018-08-24T16:24:49.038Z,78.10
2018-08-24T16:27:17.754Z,79.10
2018-08-24T16:29:46.522Z,78.80
2018-08-24T16:32:16.209Z,79.50
2018-08-24T16:34:44.892Z,80.20
2018-08-24T16:37:13.650Z,79.60
2018-08-24T16:39:42.260Z,79.30
2018-08-24T16:42:10.873Z,79.30
2018-08-24T16:44:39.605Z,80.80
2018-08-24T16:47:08.109Z,80.80
2018-08-24T16:49:36.733Z,80.50
2018-08-24T16:52:05.389Z,79.20
2018-08-24T16:54:34.292Z,78.90
2018-08-24T16:57:03.183Z,78.40
2018-08-24T16:59:31.686Z,78.90
2018-08-24T17:02:00.335Z,78.50
2018-08-24T17:04:29.049Z,79.30
2018-08-24T17:06:57.740Z,79.70
2018-08-24T17:09:26.382Z,79.30
2018-08-24T17:11:56.165Z,79.60
2018-08-24T17:14:25.623Z,79.80
2018-08-24T17:16:54.210Z,81.50
2018-08-24T17:19:22.853Z,81.60
2018-08-24T17:21:51.735Z,81.10
2018-08-24T17:24:21.017Z,81.30
2018-08-24T17:26:49.701Z,82.00
2018-08-24T17:29:18.475Z,82.30
2018-08-24T17:31:47.067Z,82.80
2018-08-24T17:34:15.591Z,84.20
2018-08-24T17:36:44.314Z,82.80
2018-08-24T17:39:13.314Z,82.80
2018-08-24T17:41:42.710Z,83.30
2018-08-24T17:44:11.169Z,84.00
2018-08-24T17:46:40.838Z,83.80
2018-08-24T17:49:09.392Z,84.00
2018-08-24T17:51:39.209Z,82.10
2018-08-24T17:54:08.084Z,78.80
2018-08-24T17:56:38.588Z,77.20
2018-08-24T17:59:09.356Z,76.40
2018-08-24T18:01:39.611Z,76.90
2018-08-24T18:04:08.267Z,76.70
2018-08-24T18:06:36.865Z,76.10
2018-08-24T18:09:08.149Z,75.80
2018-08-24T18:11:36.674Z,73.30
2018-08-24T18:14:06.705Z,74.20
2018-08-24T18:16:35.892Z,75.70
2018-08-24T18:19:05.103Z,77.40
2018-08-24T18:21:34.976Z,78.30
2018-08-24T18:24:04.111Z,79.60
2018-08-24T18:26:32.790Z,81.00
2018-08-24T18:29:02.099Z,84.80
2018-08-24T18:31:31.247Z,86.30
2018-08-24T18:34:00.406Z,89.00
2018-08-24T18:36:36.354Z,90.00
2018-08-24T18:39:10.563Z,91.50
2018-08-24T18:41:45.372Z,92.30
2018-08-24T18:44:14.974Z,93.10
2018-08-24T18:47:02.241Z,92.60
2018-08-24T18:49:48.853Z,92.70
2018-08-24T18:52:37.187Z,93.60
2018-08-24T18:55:20.816Z,93.50
2018-08-24T18:58:02.901Z,94.60
2018-08-24T19:00:41.523Z,95.40
2018-08-24T19:03:22.566Z,96.50
2018-08-24T19:06:08.717Z,97.00
2018-08-24T19:08:41.120Z,97.60
2018-08-24T19:11:15.793Z,97.70
2018-08-24T19:13:47.900Z,97.90
2018-08-24T19:16:16.437Z,98.10
2018-08-24T19:18:53.304Z,98.40
2018-08-24T19:21:32.597Z,98.70
2018-08-24T19:24:01.344Z,98.80
2018-08-24T19:26:35.917Z,99.10
2018-08-24T19:29:15.557Z,99.20
2018-08-24T19:31:44.364Z,99.30
2018-08-24T19:34:13.744Z,99.40
2018-08-24T19:36:43.358Z,99.50
2018-08-24T19:39:13.686Z,99.80
2018-08-24T19:41:49.225Z,99.70
2018-08-24T19:44:17.963Z,99.90
2018-08-24T19:46:46.866Z,99.90
2018-08-24T19:49:19.003Z,99.90
2018-08-24T19:51:52.726Z,99.90
2018-08-24T19:54:23.881Z,99.90
2018-08-24T19:56:53.500Z,99.90
2018-08-24T19:59:22.039Z,99.90
2018-08-24T20:01:50.654Z,99.90
2018-08-24T20:04:20.547Z,99.90
2018-08-24T20:06:54.970Z,99.90
2018-08-24T20:10:30.187Z,99.90
2018-08-24T20:12:59.973Z,99.90
2018-08-24T20:15:40.709Z,99.90
2018-08-24T20:18:09.987Z,99.90
2018-08-24T20:20:38.665Z,99.90
2018-08-24T20:23:10.163Z,99.90
2018-08-24T20:25:44.403Z,99.90
2018-08-24T20:31:06.285Z,99.90
2018-08-24T20:33:40.265Z,99.90
2018-08-24T20:36:15.050Z,99.90
2018-08-24T20:38:45.414Z,99.90
2018-08-24T20:41:13.972Z,99.90
2018-08-24T20:43:54.755Z,99.90
2018-08-24T20:46:30.739Z,99.90
2018-08-24T20:49:01.940Z,99.90
2018-08-24T20:51:30.729Z,99.90
2018-08-24T20:54:02.369Z,99.90
2018-08-24T20:56:31.178Z,99.90
2018-08-24T20:59:09.280Z,99.90
2018-08-24T21:01:43.093Z,99.90
2018-08-24T21:04:18.100Z,99.90
2018-08-24T21:06:52.713Z,99.90
2018-08-24T21:09:32.911Z,99.90
2018-08-24T21:12:02.914Z,99.90
2018-08-24T21:14:45.021Z,99.90
2018-08-24T21:17:18.087Z,99.90
2018-08-24T21:19:52.864Z,99.90
2018-08-24T21:22:21.503Z,99.90
2018-08-24T21:25:02.084Z,99.90
2018-08-24T21:27:40.286Z,99.90
2018-08-24T21:30:25.717Z,99.90
2018-08-24T21:32:54.106Z,99.90
2018-08-24T21:35:28.679Z,99.90
2018-08-24T21:38:00.514Z,99.90
2018-08-24T21:40:32.105Z,99.90
2018-08-24T21:43:06.335Z,99.90
2018-08-24T21:45:42.878Z,99.90
2018-08-24T21:48:25.211Z,99.90
2018-08-24T21:51:07.526Z,99.90
2018-08-24T21:53:36.475Z,99.90
2018-08-24T21:56:19.801Z,99.90
2018-08-24T21:58:48.768Z,99.90
2018-08-24T22:01:18.456Z,99.90
2018-08-24T22:07:00.923Z,99.90
2018-08-24T22:09:46.242Z,99.90
2018-08-24T22:12:22.692Z,99.90
2018-08-24T22:14:56.680Z,99.90
2018-08-24T22:17:32.462Z,99.90
2018-08-24T22:20:01.900Z,99.90
2018-08-24T22:22:33.657Z,99.90
2018-08-24T22:25:03.084Z,99.90
2018-08-24T22:27:31.819Z,99.90
2018-08-24T22:30:03.723Z,99.90
2018-08-24T22:32:32.435Z,99.90
2018-08-24T22:35:01.144Z,99.90
2018-08-24T22:37:32.865Z,99.90
2018-08-24T22:40:02.535Z,99.90
2018-08-24T22:45:35.606Z,99.90
2018-08-24T22:48:09.721Z,99.90
2018-08-24T22:50:49.877Z,99.90
2018-08-24T22:53:28.277Z,99.90
2018-08-24T22:56:04.758Z,99.90
2018-08-24T22:58:36.049Z,99.90
2018-08-24T23:01:12.329Z,99.90
2018-08-24T23:03:46.832Z,99.90
2018-08-24T23:06:34.104Z,99.90
2018-08-24T23:09:15.485Z,99.90
2018-08-24T23:12:02.230Z,99.90
2018-08-24T23:14:38.153Z,99.90
2018-08-24T23:20:00.044Z,99.90
2018-08-24T23:22:32.184Z,99.90
2018-08-24T23:25:01.484Z,99.90
2018-08-24T23:27:39.628Z,99.90
2018-08-24T23:30:09.101Z,99.90
2018-08-24T23:32:37.790Z,99.90
2018-08-24T23:35:12.104Z,99.90
2018-08-24T23:37:42.027Z,99.90
2018-08-24T23:40:10.931Z,99.90
2018-08-24T23:42:45.050Z,99.90
2018-08-24T23:45:26.164Z,99.90
2018-08-24T23:48:06.825Z,99.90
2018-08-24T23:50:42.880Z,99.90
2018-08-24T23:53:24.312Z,99.90
2018-08-24T23:56:00.525Z,99.90
2018-08-24T23:58:41.852Z,99.90
